sensor_id;sensor_type;location;lat;lon;timestamp;noise_LAeq;noise_LA_min;noise_LA_max;noise_LA01;noise_LA95
61249;Laerm;47119;49.130;9.218;2023-04-06T11:24:06;56.38;42.42;82.81;;
61249;Laerm;47119;49.130;9.218;2023-04-06T12:10:29;53.05;39.56;66.95;;
61249;Laerm;47119;49.130;9.218;2023-04-06T12:13:45;53.72;39.08;67.77;;
61249;Laerm;47119;49.130;9.218;2023-04-06T12:17:31;56.40;41.19;75.19;;
61249;Laerm;47119;49.130;9.218;2023-04-06T12:20:41;56.50;43.42;76.09;;
61249;Laerm;47119;49.130;9.218;2023-04-06T14:01:48;54.82;43.24;66.79;;
61249;Laerm;47119;49.130;9.218;2023-04-06T14:04:28;54.88;43.73;65.59;;
61249;Laerm;47119;49.130;9.218;2023-04-06T14:07:07;55.12;42.45;66.43;;
61249;Laerm;47119;49.130;9.218;2023-04-06T14:09:40;58.09;43.95;79.25;;
61249;Laerm;47119;49.130;9.218;2023-04-06T14:12:19;55.86;42.30;67.59;;
61249;Laerm;47119;49.130;9.218;2023-04-06T14:15:25;55.17;44.49;69.88;;
61249;Laerm;47119;49.130;9.218;2023-04-06T14:18:33;64.42;45.64;86.28;;
61249;Laerm;47119;49.130;9.218;2023-04-06T14:22:03;60.54;43.81;77.63;;
61249;Laerm;47119;49.130;9.218;2023-04-06T14:25:13;56.16;42.65;68.74;;
61249;Laerm;47119;49.130;9.218;2023-04-06T14:28:46;57.07;45.63;72.89;;
61249;Laerm;47119;49.130;9.218;2023-04-06T14:31:34;58.07;43.00;77.97;;
61249;Laerm;47119;49.130;9.218;2023-04-06T14:34:05;57.99;45.57;74.01;;
61249;Laerm;47119;49.130;9.218;2023-04-06T14:36:32;59.74;43.77;81.93;;
61249;Laerm;47119;49.130;9.218;2023-04-06T14:39:05;55.17;44.75;66.12;;
61249;Laerm;47119;49.130;9.218;2023-04-06T14:41:33;55.56;40.17;68.72;;
61249;Laerm;47119;49.130;9.218;2023-04-06T14:44:03;53.85;41.46;67.02;;
61249;Laerm;47119;49.130;9.218;2023-04-06T14:46:31;53.46;43.06;65.80;;
61249;Laerm;47119;49.130;9.218;2023-04-06T14:48:59;57.00;43.24;71.35;;
61249;Laerm;47119;49.130;9.218;2023-04-06T14:51:27;54.71;43.97;66.48;;
61249;Laerm;47119;49.130;9.218;2023-04-06T14:53:56;55.64;41.17;70.09;;
61249;Laerm;47119;49.130;9.218;2023-04-06T14:56:24;53.97;42.72;71.12;;
61249;Laerm;47119;49.130;9.218;2023-04-06T14:58:51;55.72;44.79;73.17;;
61249;Laerm;47119;49.130;9.218;2023-04-06T15:01:19;54.46;45.79;67.44;;
61249;Laerm;47119;49.130;9.218;2023-04-06T15:03:48;54.68;44.65;69.89;;
61249;Laerm;47119;49.130;9.218;2023-04-06T15:06:18;54.22;44.72;70.14;;
61249;Laerm;47119;49.130;9.218;2023-04-06T15:08:48;55.41;41.90;69.84;;
61249;Laerm;47119;49.130;9.218;2023-04-06T15:11:16;54.74;42.55;70.53;;
61249;Laerm;47119;49.130;9.218;2023-04-06T15:14:00;56.67;44.69;72.09;;
61249;Laerm;47119;49.130;9.218;2023-04-06T15:21:58;54.14;42.21;67.70;;
61249;Laerm;47119;49.130;9.218;2023-04-06T15:24:52;58.24;43.05;78.41;;
61249;Laerm;47119;49.130;9.218;2023-04-06T15:37:18;55.27;41.72;73.37;;
61249;Laerm;47119;49.130;9.218;2023-04-06T15:40:12;56.95;42.77;76.93;;
61249;Laerm;47119;49.130;9.218;2023-04-06T15:42:41;62.36;45.62;80.26;;
61249;Laerm;47119;49.130;9.218;2023-04-06T15:45:09;53.94;44.24;65.25;;
61249;Laerm;47119;49.130;9.218;2023-04-06T15:47:37;55.10;44.56;67.20;;
61249;Laerm;47119;49.130;9.218;2023-04-06T15:50:32;57.57;44.39;71.22;;
61249;Laerm;47119;49.130;9.218;2023-04-06T15:53:22;55.22;42.03;69.54;;
61249;Laerm;47119;49.130;9.218;2023-04-06T15:55:58;54.49;43.14;68.72;;
61249;Laerm;47119;49.130;9.218;2023-04-06T15:58:25;52.37;43.34;62.95;;
61249;Laerm;47119;49.130;9.218;2023-04-06T16:00:52;54.12;44.62;68.18;;
61249;Laerm;47119;49.130;9.218;2023-04-06T16:03:20;52.95;43.19;66.80;;
61249;Laerm;47119;49.130;9.218;2023-04-06T16:05:48;54.61;42.73;67.22;;
61249;Laerm;47119;49.130;9.218;2023-04-06T16:08:15;56.47;44.24;68.23;;
61249;Laerm;47119;49.130;9.218;2023-04-06T16:10:44;55.99;45.03;67.39;;
61249;Laerm;47119;49.130;9.218;2023-04-06T16:13:13;55.80;42.71;70.87;;
61249;Laerm;47119;49.130;9.218;2023-04-06T16:15:40;55.47;46.16;68.31;;
61249;Laerm;47119;49.130;9.218;2023-04-06T16:18:07;56.51;45.09;67.19;;
61249;Laerm;47119;49.130;9.218;2023-04-06T16:20:34;56.73;40.06;80.81;;
61249;Laerm;47119;49.130;9.218;2023-04-06T16:23:01;55.16;44.94;69.48;;
61249;Laerm;47119;49.130;9.218;2023-04-06T16:25:28;55.59;42.08;71.76;;
61249;Laerm;47119;49.130;9.218;2023-04-06T16:27:56;55.26;43.52;82.03;;
61249;Laerm;47119;49.130;9.218;2023-04-06T16:30:24;56.92;43.84;71.27;;
61249;Laerm;47119;49.130;9.218;2023-04-06T16:32:51;56.14;47.73;68.22;;
61249;Laerm;47119;49.130;9.218;2023-04-06T16:35:19;56.90;48.03;69.38;;
61249;Laerm;47119;49.130;9.218;2023-04-06T16:37:47;55.12;43.51;67.87;;
61249;Laerm;47119;49.130;9.218;2023-04-06T16:40:15;58.20;45.66;75.84;;
61249;Laerm;47119;49.130;9.218;2023-04-06T16:42:42;53.83;41.88;64.04;;
61249;Laerm;47119;49.130;9.218;2023-04-06T16:45:10;58.41;44.44;76.44;;
61249;Laerm;47119;49.130;9.218;2023-04-06T16:47:39;54.57;45.02;66.91;;
61249;Laerm;47119;49.130;9.218;2023-04-06T16:50:07;53.59;44.10;62.61;;
61249;Laerm;47119;49.130;9.218;2023-04-06T16:52:39;52.05;41.74;64.90;;
61249;Laerm;47119;49.130;9.218;2023-04-06T16:55:09;55.94;44.04;67.70;;
61249;Laerm;47119;49.130;9.218;2023-04-06T16:57:36;55.55;41.49;69.50;;
61249;Laerm;47119;49.130;9.218;2023-04-06T17:00:05;56.89;48.19;69.16;;
61249;Laerm;47119;49.130;9.218;2023-04-06T17:02:33;56.43;48.43;68.89;;
61249;Laerm;47119;49.130;9.218;2023-04-06T17:05:03;57.86;50.61;75.93;;
61249;Laerm;47119;49.130;9.218;2023-04-06T17:07:32;55.16;44.78;77.25;;
61249;Laerm;47119;49.130;9.218;2023-04-06T17:10:01;54.92;43.18;66.75;;
61249;Laerm;47119;49.130;9.218;2023-04-06T17:12:29;61.25;42.08;80.83;;
61249;Laerm;47119;49.130;9.218;2023-04-06T17:14:56;55.88;42.96;72.16;;
61249;Laerm;47119;49.130;9.218;2023-04-06T17:17:23;56.59;45.35;66.88;;
61249;Laerm;47119;49.130;9.218;2023-04-06T17:19:52;56.63;42.47;76.63;;
61249;Laerm;47119;49.130;9.218;2023-04-06T17:22:23;53.06;42.73;67.02;;
61249;Laerm;47119;49.130;9.218;2023-04-06T17:24:55;54.43;42.92;68.50;;
61249;Laerm;47119;49.130;9.218;2023-04-06T17:27:25;54.29;41.43;68.01;;
61249;Laerm;47119;49.130;9.218;2023-04-06T17:29:55;56.01;39.21;69.98;;
61249;Laerm;47119;49.130;9.218;2023-04-06T17:32:24;56.19;40.22;72.77;;
61249;Laerm;47119;49.130;9.218;2023-04-06T17:34:54;53.38;39.76;64.87;;
61249;Laerm;47119;49.130;9.218;2023-04-06T17:37:27;59.42;42.09;77.99;;
61249;Laerm;47119;49.130;9.218;2023-04-06T17:39:57;62.48;45.83;83.50;;
61249;Laerm;47119;49.130;9.218;2023-04-06T17:42:24;55.66;44.55;68.35;;
61249;Laerm;47119;49.130;9.218;2023-04-06T17:44:52;61.14;42.56;79.19;;
61249;Laerm;47119;49.130;9.218;2023-04-06T17:47:19;54.74;40.31;75.62;;
61249;Laerm;47119;49.130;9.218;2023-04-06T17:49:46;56.65;40.82;68.47;;
61249;Laerm;47119;49.130;9.218;2023-04-06T17:52:13;53.06;42.48;65.32;;
61249;Laerm;47119;49.130;9.218;2023-04-06T17:54:42;54.70;40.92;67.58;;
61249;Laerm;47119;49.130;9.218;2023-04-06T17:57:12;52.96;40.58;66.11;;
61249;Laerm;47119;49.130;9.218;2023-04-06T17:59:40;53.15;40.96;73.70;;
61249;Laerm;47119;49.130;9.218;2023-04-06T18:02:07;54.93;41.25;66.23;;
61249;Laerm;47119;49.130;9.218;2023-04-06T18:04:35;53.50;40.04;67.82;;
61249;Laerm;47119;49.130;9.218;2023-04-06T18:07:05;54.65;42.64;68.07;;
61249;Laerm;47119;49.130;9.218;2023-04-06T18:09:35;54.22;39.52;70.14;;
61249;Laerm;47119;49.130;9.218;2023-04-06T18:12:03;52.08;40.53;63.16;;
61249;Laerm;47119;49.130;9.218;2023-04-06T18:14:30;59.44;39.73;80.67;;
61249;Laerm;47119;49.130;9.218;2023-04-06T18:16:57;52.62;40.79;64.58;;
61249;Laerm;47119;49.130;9.218;2023-04-06T18:19:25;51.97;38.57;69.74;;
61249;Laerm;47119;49.130;9.218;2023-04-06T18:21:53;53.81;37.51;68.89;;
61249;Laerm;47119;49.130;9.218;2023-04-06T18:24:20;51.28;41.13;61.50;;
61249;Laerm;47119;49.130;9.218;2023-04-06T18:26:47;62.22;41.17;85.56;;
61249;Laerm;47119;49.130;9.218;2023-04-06T18:29:16;54.39;40.62;72.97;;
61249;Laerm;47119;49.130;9.218;2023-04-06T18:31:44;54.16;38.89;68.64;;
61249;Laerm;47119;49.130;9.218;2023-04-06T18:34:15;53.62;41.36;67.10;;
61249;Laerm;47119;49.130;9.218;2023-04-06T18:36:42;50.31;37.89;63.76;;
61249;Laerm;47119;49.130;9.218;2023-04-06T18:39:09;52.12;37.89;67.37;;
61249;Laerm;47119;49.130;9.218;2023-04-06T18:41:37;51.09;38.15;62.73;;
61249;Laerm;47119;49.130;9.218;2023-04-06T18:44:04;51.96;39.47;64.62;;
61249;Laerm;47119;49.130;9.218;2023-04-06T18:46:33;52.11;36.60;65.25;;
61249;Laerm;47119;49.130;9.218;2023-04-06T18:49:02;51.37;35.15;67.15;;
61249;Laerm;47119;49.130;9.218;2023-04-06T18:51:30;52.69;39.83;68.96;;
61249;Laerm;47119;49.130;9.218;2023-04-06T18:53:59;52.10;37.81;65.08;;
61249;Laerm;47119;49.130;9.218;2023-04-06T18:56:27;69.01;40.57;90.33;;
61249;Laerm;47119;49.130;9.218;2023-04-06T18:58:54;54.73;38.73;72.53;;
61249;Laerm;47119;49.130;9.218;2023-04-06T19:01:23;51.36;38.78;64.59;;
61249;Laerm;47119;49.130;9.218;2023-04-06T19:03:53;51.44;38.95;64.38;;
61249;Laerm;47119;49.130;9.218;2023-04-06T19:06:22;54.83;40.65;82.70;;
61249;Laerm;47119;49.130;9.218;2023-04-06T19:08:49;50.43;39.16;61.61;;
61249;Laerm;47119;49.130;9.218;2023-04-06T19:11:17;54.04;36.95;71.08;;
61249;Laerm;47119;49.130;9.218;2023-04-06T19:13:44;57.73;38.95;84.06;;
61249;Laerm;47119;49.130;9.218;2023-04-06T19:16:15;52.92;37.43;65.67;;
61249;Laerm;47119;49.130;9.218;2023-04-06T19:18:42;51.94;37.20;63.59;;
61249;Laerm;47119;49.130;9.218;2023-04-06T19:21:15;49.33;35.81;67.99;;
61249;Laerm;47119;49.130;9.218;2023-04-06T19:23:43;51.72;38.94;68.96;;
61249;Laerm;47119;49.130;9.218;2023-04-06T19:26:11;49.61;38.49;60.88;;
61249;Laerm;47119;49.130;9.218;2023-04-06T19:28:38;50.31;39.34;65.17;;
61249;Laerm;47119;49.130;9.218;2023-04-06T19:31:07;48.91;37.87;62.91;;
61249;Laerm;47119;49.130;9.218;2023-04-06T19:33:36;51.18;39.97;73.48;;
61249;Laerm;47119;49.130;9.218;2023-04-06T19:36:05;48.37;36.01;64.14;;
61249;Laerm;47119;49.130;9.218;2023-04-06T19:38:35;48.78;35.69;63.16;;
61249;Laerm;47119;49.130;9.218;2023-04-06T19:41:03;50.54;40.10;64.99;;
61249;Laerm;47119;49.130;9.218;2023-04-06T19:43:30;51.98;40.13;66.91;;
61249;Laerm;47119;49.130;9.218;2023-04-06T19:45:58;58.99;38.52;80.39;;
61249;Laerm;47119;49.130;9.218;2023-04-06T19:48:25;47.41;35.31;61.93;;
61249;Laerm;47119;49.130;9.218;2023-04-06T19:50:53;48.36;35.24;65.84;;
61249;Laerm;47119;49.130;9.218;2023-04-06T19:53:21;50.77;37.61;63.95;;
61249;Laerm;47119;49.130;9.218;2023-04-06T19:55:50;49.34;34.30;63.64;;
61249;Laerm;47119;49.130;9.218;2023-04-06T19:58:17;50.17;35.53;68.13;;
61249;Laerm;47119;49.130;9.218;2023-04-06T20:00:46;49.56;36.17;63.70;;
61249;Laerm;47119;49.130;9.218;2023-04-06T20:03:13;52.73;34.52;65.49;;
61249;Laerm;47119;49.130;9.218;2023-04-06T20:05:47;53.44;37.42;69.03;;
61249;Laerm;47119;49.130;9.218;2023-04-06T20:08:15;53.59;34.71;69.10;;
61249;Laerm;47119;49.130;9.218;2023-04-06T20:10:42;49.43;37.16;62.52;;
61249;Laerm;47119;49.130;9.218;2023-04-06T20:13:11;52.68;35.75;65.61;;
61249;Laerm;47119;49.130;9.218;2023-04-06T20:15:38;50.84;36.85;66.05;;
61249;Laerm;47119;49.130;9.218;2023-04-06T20:18:06;51.43;36.12;66.34;;
61249;Laerm;47119;49.130;9.218;2023-04-06T20:20:33;51.22;37.11;63.44;;
61249;Laerm;47119;49.130;9.218;2023-04-06T20:23:00;58.52;38.28;80.22;;
61249;Laerm;47119;49.130;9.218;2023-04-06T20:25:27;49.56;34.96;63.63;;
61249;Laerm;47119;49.130;9.218;2023-04-06T20:27:55;52.72;35.95;66.94;;
61249;Laerm;47119;49.130;9.218;2023-04-06T20:30:23;46.59;35.57;58.11;;
61249;Laerm;47119;49.130;9.218;2023-04-06T20:32:51;50.85;38.95;66.04;;
61249;Laerm;47119;49.130;9.218;2023-04-06T20:35:18;52.27;37.16;66.87;;
61249;Laerm;47119;49.130;9.218;2023-04-06T20:37:45;51.26;33.69;65.77;;
61249;Laerm;47119;49.130;9.218;2023-04-06T20:40:12;48.74;35.07;63.13;;
61249;Laerm;47119;49.130;9.218;2023-04-06T20:42:39;50.42;35.28;66.79;;
61249;Laerm;47119;49.130;9.218;2023-04-06T20:45:08;51.37;38.95;67.10;;
61249;Laerm;47119;49.130;9.218;2023-04-06T20:47:37;50.99;32.11;68.04;;
61249;Laerm;47119;49.130;9.218;2023-04-06T20:50:05;46.97;33.21;62.40;;
61249;Laerm;47119;49.130;9.218;2023-04-06T20:52:33;47.02;33.56;63.92;;
61249;Laerm;47119;49.130;9.218;2023-04-06T20:55:02;53.71;34.00;69.57;;
61249;Laerm;47119;49.130;9.218;2023-04-06T20:57:29;49.50;34.82;64.57;;
61249;Laerm;47119;49.130;9.218;2023-04-06T20:59:57;55.45;36.62;74.17;;
61249;Laerm;47119;49.130;9.218;2023-04-06T21:02:24;51.85;32.92;67.91;;
61249;Laerm;47119;49.130;9.218;2023-04-06T21:04:52;48.82;33.82;63.05;;
61249;Laerm;47119;49.130;9.218;2023-04-06T21:07:20;51.50;34.94;66.00;;
61249;Laerm;47119;49.130;9.218;2023-04-06T21:09:47;51.79;36.56;69.37;;
61249;Laerm;47119;49.130;9.218;2023-04-06T21:12:15;51.61;34.67;77.28;;
61249;Laerm;47119;49.130;9.218;2023-04-06T21:14:42;43.90;31.27;54.94;;
61249;Laerm;47119;49.130;9.218;2023-04-06T21:17:09;49.27;34.93;63.63;;
61249;Laerm;47119;49.130;9.218;2023-04-06T21:19:36;46.93;32.60;63.48;;
61249;Laerm;47119;49.130;9.218;2023-04-06T21:22:04;52.77;34.70;70.56;;
61249;Laerm;47119;49.130;9.218;2023-04-06T21:24:37;50.13;34.30;62.97;;
61249;Laerm;47119;49.130;9.218;2023-04-06T21:27:04;49.49;33.00;64.74;;
61249;Laerm;47119;49.130;9.218;2023-04-06T21:29:32;48.85;34.75;66.04;;
61249;Laerm;47119;49.130;9.218;2023-04-06T21:31:59;44.35;36.16;57.84;;
61249;Laerm;47119;49.130;9.218;2023-04-06T21:34:26;45.89;38.29;54.29;;
61249;Laerm;47119;49.130;9.218;2023-04-06T21:36:53;45.00;37.12;61.05;;
61249;Laerm;47119;49.130;9.218;2023-04-06T21:39:21;50.91;36.84;64.56;;
61249;Laerm;47119;49.130;9.218;2023-04-06T21:41:50;51.12;36.66;63.04;;
61249;Laerm;47119;49.130;9.218;2023-04-06T21:44:17;43.36;30.65;55.24;;
61249;Laerm;47119;49.130;9.218;2023-04-06T21:46:44;50.33;31.22;70.26;;
61249;Laerm;47119;49.130;9.218;2023-04-06T21:49:11;43.00;32.78;51.94;;
61249;Laerm;47119;49.130;9.218;2023-04-06T21:51:39;50.30;34.42;67.14;;
61249;Laerm;47119;49.130;9.218;2023-04-06T21:54:06;41.45;33.27;55.68;;
61249;Laerm;47119;49.130;9.218;2023-04-06T21:56:34;50.68;32.58;65.74;;
61249;Laerm;47119;49.130;9.218;2023-04-06T21:59:02;47.95;32.23;62.93;;
61249;Laerm;47119;49.130;9.218;2023-04-06T22:01:29;48.20;32.26;63.36;;
61249;Laerm;47119;49.130;9.218;2023-04-06T22:03:56;45.54;31.21;63.11;;
61249;Laerm;47119;49.130;9.218;2023-04-06T22:06:35;44.04;32.28;52.98;;
61249;Laerm;47119;49.130;9.218;2023-04-06T22:09:02;50.66;31.53;65.01;;
61249;Laerm;47119;49.130;9.218;2023-04-06T22:11:30;43.08;31.91;52.12;;
61249;Laerm;47119;49.130;9.218;2023-04-06T22:13:59;59.33;32.67;78.25;;
61249;Laerm;47119;49.130;9.218;2023-04-06T22:16:26;53.45;33.97;66.98;;
61249;Laerm;47119;49.130;9.218;2023-04-06T22:18:56;51.10;32.96;70.95;;
61249;Laerm;47119;49.130;9.218;2023-04-06T22:21:23;50.92;32.51;65.81;;
61249;Laerm;47119;49.130;9.218;2023-04-06T22:23:51;48.25;33.13;61.83;;
61249;Laerm;47119;49.130;9.218;2023-04-06T22:26:18;50.01;32.89;67.02;;
61249;Laerm;47119;49.130;9.218;2023-04-06T22:28:45;49.73;33.17;68.02;;
61249;Laerm;47119;49.130;9.218;2023-04-06T22:31:14;53.04;33.19;68.81;;
61249;Laerm;47119;49.130;9.218;2023-04-06T22:33:41;42.85;31.58;52.15;;
61249;Laerm;47119;49.130;9.218;2023-04-06T22:36:08;44.37;32.59;57.34;;
61249;Laerm;47119;49.130;9.218;2023-04-06T22:38:35;46.30;35.01;60.04;;
61249;Laerm;47119;49.130;9.218;2023-04-06T22:41:02;46.44;32.10;63.52;;
61249;Laerm;47119;49.130;9.218;2023-04-06T22:43:29;43.30;32.66;54.86;;
61249;Laerm;47119;49.130;9.218;2023-04-06T22:45:56;47.35;30.71;67.79;;
61249;Laerm;47119;49.130;9.218;2023-04-06T22:48:25;40.69;31.65;52.17;;
61249;Laerm;47119;49.130;9.218;2023-04-06T22:50:54;47.76;32.80;63.52;;
61249;Laerm;47119;49.130;9.218;2023-04-06T22:53:21;49.08;34.50;69.43;;
61249;Laerm;47119;49.130;9.218;2023-04-06T22:55:49;53.78;36.51;70.19;;
61249;Laerm;47119;49.130;9.218;2023-04-06T22:58:16;42.65;31.82;53.65;;
61249;Laerm;47119;49.130;9.218;2023-04-06T23:00:43;48.14;31.38;64.58;;
61249;Laerm;47119;49.130;9.218;2023-04-06T23:03:10;53.67;35.12;73.53;;
61249;Laerm;47119;49.130;9.218;2023-04-06T23:05:38;51.96;32.47;76.66;;
61249;Laerm;47119;49.130;9.218;2023-04-06T23:08:05;44.91;32.83;64.27;;
61249;Laerm;47119;49.130;9.218;2023-04-06T23:10:33;49.21;31.56;69.43;;
61249;Laerm;47119;49.130;9.218;2023-04-06T23:13:01;45.01;34.86;65.57;;
61249;Laerm;47119;49.130;9.218;2023-04-06T23:15:28;44.97;31.80;60.14;;
61249;Laerm;47119;49.130;9.218;2023-04-06T23:17:55;47.07;31.85;64.40;;
61249;Laerm;47119;49.130;9.218;2023-04-06T23:20:22;48.14;34.32;66.08;;
61249;Laerm;47119;49.130;9.218;2023-04-06T23:22:51;48.99;31.52;65.25;;
61249;Laerm;47119;49.130;9.218;2023-04-06T23:25:18;42.85;31.73;67.81;;
61249;Laerm;47119;49.130;9.218;2023-04-06T23:27:45;46.16;33.61;60.95;;
61249;Laerm;47119;49.130;9.218;2023-04-06T23:30:12;44.14;30.93;63.54;;
61249;Laerm;47119;49.130;9.218;2023-04-06T23:32:39;52.33;35.21;68.88;;
61249;Laerm;47119;49.130;9.218;2023-04-06T23:35:07;44.39;33.59;62.50;;
61249;Laerm;47119;49.130;9.218;2023-04-06T23:37:35;45.55;33.87;63.56;;
61249;Laerm;47119;49.130;9.218;2023-04-06T23:40:04;50.31;32.82;67.64;;
61249;Laerm;47119;49.130;9.218;2023-04-06T23:42:31;47.16;34.56;60.77;;
61249;Laerm;47119;49.130;9.218;2023-04-06T23:45:03;54.06;35.62;72.27;;
61249;Laerm;47119;49.130;9.218;2023-04-06T23:47:30;49.79;36.14;67.99;;
61249;Laerm;47119;49.130;9.218;2023-04-06T23:49:58;48.71;32.82;67.25;;
61249;Laerm;47119;49.130;9.218;2023-04-06T23:52:25;46.52;31.05;68.19;;
61249;Laerm;47119;49.130;9.218;2023-04-06T23:54:54;49.43;31.68;66.92;;
61249;Laerm;47119;49.130;9.218;2023-04-06T23:57:22;48.64;32.14;66.72;;
61249;Laerm;47119;49.130;9.218;2023-04-06T23:59:50;44.94;32.24;65.98;;
